Time;durP1;ratioP1;P1;durP2;ratioP2;P2;SDS_P1;SDS_P2;PMS_P1;PMS_P2;Temp;Humidity;BMP_temperature;BMP_pressure;BME280_temperature;BME280_humidity;BME280_pressure;Samples;Min_cycle;Max_cycle;Signal;HPM_P1;HPM_P2
2023/04/21 00:02:14;;;;;;;33.00;20.73;;;;;;;5.85;100.00;100210.13;5010341;28;20193;-69
2023/04/21 00:04:41;;;;;;;36.63;20.60;;;;;;;5.77;100.00;100227.41;5012988;28;20664;-68
2023/04/21 00:07:07;;;;;;;33.73;20.37;;;;;;;5.60;100.00;100219.94;5009306;28;20198;-68
2023/04/21 00:09:34;;;;;;;34.93;21.13;;;;;;;5.51;100.00;100223.97;5011325;28;20194;-68
2023/04/21 00:12:00;;;;;;;32.67;19.73;;;;;;;5.29;100.00;100214.56;5009254;28;20223;-68
2023/04/21 00:14:26;;;;;;;29.77;17.63;;;;;;;5.12;100.00;100216.63;5010045;28;20679;-68
2023/04/21 00:16:53;;;;;;;33.20;19.87;;;;;;;5.03;100.00;100225.09;5011454;28;20204;-68
2023/04/21 00:19:19;;;;;;;30.30;18.83;;;;;;;4.94;100.00;100223.91;5007890;28;20323;-69
2023/04/21 00:21:46;;;;;;;31.60;19.03;;;;;;;4.90;100.00;100209.81;5019678;28;20664;-68
2023/04/21 00:24:12;;;;;;;35.80;21.33;;;;;;;4.90;100.00;100208.91;5006756;28;20653;-68
2023/04/21 00:26:38;;;;;;;34.97;20.37;;;;;;;4.96;100.00;100217.00;5011393;28;20232;-68
2023/04/21 00:29:05;;;;;;;33.43;19.97;;;;;;;4.90;100.00;100203.66;5006011;28;20255;-68
2023/04/21 00:31:31;;;;;;;30.77;18.97;;;;;;;4.81;100.00;100213.88;5003237;28;20710;-68
2023/04/21 00:33:57;;;;;;;34.87;19.87;;;;;;;4.78;100.00;100211.13;5010235;28;20196;-68
2023/04/21 00:36:26;;;;;;;34.67;20.27;;;;;;;4.70;100.00;100213.47;4994168;28;20228;-68
2023/04/21 00:38:53;;;;;;;29.77;17.93;;;;;;;4.58;100.00;100205.22;5006183;28;20250;-69
2023/04/21 00:41:19;;;;;;;30.53;18.53;;;;;;;4.53;100.00;100206.78;5009307;28;20196;-69
2023/04/21 00:44:05;;;;;;;30.67;18.60;;;;;;;4.39;100.00;100209.78;5011014;28;20200;-69
2023/04/21 00:46:32;;;;;;;32.03;19.53;;;;;;;4.28;100.00;100200.69;5005775;28;20221;-68
2023/04/21 00:49:01;;;;;;;33.63;20.37;;;;;;;4.26;100.00;100212.84;5010464;28;20652;-67
2023/04/21 00:51:28;;;;;;;35.63;20.07;;;;;;;4.25;100.00;100210.16;5010130;28;20196;-68
2023/04/21 00:53:55;;;;;;;32.60;19.17;;;;;;;4.20;100.00;100201.25;5009311;28;20238;-68
2023/04/21 00:56:22;;;;;;;30.40;18.17;;;;;;;4.15;100.00;100208.06;5005858;28;20196;-68
2023/04/21 00:58:49;;;;;;;33.23;19.00;;;;;;;4.11;100.00;100204.44;5009289;28;20278;-68
2023/04/21 01:01:16;;;;;;;33.50;19.00;;;;;;;4.08;100.00;100204.31;5010040;28;20246;-68
2023/04/21 01:03:43;;;;;;;30.07;18.53;;;;;;;4.02;100.00;100198.88;5007074;28;20287;-69
2023/04/21 01:06:09;;;;;;;33.23;18.60;;;;;;;4.00;100.00;100193.56;5002485;28;20215;-68
2023/04/21 01:08:36;;;;;;;32.67;19.03;;;;;;;3.97;100.00;100200.41;5007578;28;20212;-68
2023/04/21 01:11:10;;;;;;;29.43;17.03;;;;;;;3.95;100.00;100199.47;5011641;28;20626;-68
2023/04/21 01:13:37;;;;;;;31.80;19.00;;;;;;;3.91;100.00;100192.31;5004594;28;20212;-67
2023/04/21 01:16:05;;;;;;;33.33;19.07;;;;;;;3.96;100.00;100194.28;5005271;28;20207;-68
2023/04/21 01:18:32;;;;;;;31.00;18.13;;;;;;;3.93;100.00;100198.50;5007392;28;20228;-68
2023/04/21 01:20:58;;;;;;;31.73;19.40;;;;;;;4.00;100.00;100198.81;5002110;28;20196;-68
2023/04/21 01:23:24;;;;;;;36.80;20.07;;;;;;;4.17;100.00;100199.41;5017147;28;20917;-68
2023/04/21 01:25:51;;;;;;;36.87;20.53;;;;;;;4.07;100.00;100205.16;5006563;28;20203;-68
2023/04/21 01:28:22;;;;;;;34.43;19.70;;;;;;;4.03;100.00;100198.94;5008834;28;20212;-69
2023/04/21 01:30:48;;;;;;;34.10;19.33;;;;;;;3.95;100.00;100204.69;4981739;28;20198;-68
2023/04/21 01:33:15;;;;;;;30.27;18.00;;;;;;;3.82;100.00;100200.75;5009904;28;20208;-68
2023/04/21 01:35:42;;;;;;;34.60;19.10;;;;;;;3.71;100.00;100205.59;5000743;28;20199;-67
2023/04/21 01:38:08;;;;;;;33.43;18.37;;;;;;;3.68;100.00;100208.09;5010262;28;20638;-68
2023/04/21 01:40:35;;;;;;;32.97;19.23;;;;;;;3.70;100.00;100206.41;5016015;28;20199;-68
2023/04/21 01:43:02;;;;;;;32.10;18.30;;;;;;;3.72;100.00;100206.47;5012344;28;20291;-68
2023/04/21 01:45:30;;;;;;;34.60;19.30;;;;;;;3.82;100.00;100205.09;5011529;28;20216;-67
2023/04/21 01:47:56;;;;;;;36.87;20.67;;;;;;;4.01;100.00;100197.97;5005786;28;20369;-68
2023/04/21 01:50:23;;;;;;;32.43;18.17;;;;;;;3.92;100.00;100209.81;5011511;28;20200;-68
2023/04/21 01:52:49;;;;;;;32.67;19.37;;;;;;;3.99;100.00;100206.59;5013885;28;20254;-68
2023/04/21 01:55:15;;;;;;;38.40;19.30;;;;;;;3.93;100.00;100204.63;5014860;28;20249;-68
2023/04/21 01:57:42;;;;;;;32.13;18.23;;;;;;;3.87;100.00;100212.28;5006350;28;20220;-68
2023/04/21 02:00:09;;;;;;;30.53;17.83;;;;;;;3.86;100.00;100210.50;5005760;28;20228;-68
2023/04/21 02:02:35;;;;;;;29.00;17.70;;;;;;;3.87;100.00;100208.75;4996149;28;20208;-68
2023/04/21 02:05:02;;;;;;;28.40;17.27;;;;;;;3.85;100.00;100211.31;5001092;28;20208;-68
2023/04/21 02:07:28;;;;;;;32.10;18.40;;;;;;;3.83;100.00;100210.38;4995662;28;20748;-68
2023/04/21 02:09:55;;;;;;;31.67;17.93;;;;;;;3.85;100.00;100208.72;4982200;28;20773;-70
2023/04/21 02:12:21;;;;;;;32.57;19.87;;;;;;;3.97;100.00;100205.63;4999722;28;20590;-68
2023/04/21 02:14:48;;;;;;;34.67;19.00;;;;;;;4.22;100.00;100202.19;4997979;28;20582;-68
2023/04/21 02:17:15;;;;;;;35.33;19.47;;;;;;;4.27;100.00;100200.63;4999922;28;20614;-68
2023/04/21 02:19:42;;;;;;;34.83;19.90;;;;;;;4.29;100.00;100205.06;4999836;28;20197;-69
2023/04/21 02:22:11;;;;;;;35.40;19.83;;;;;;;4.30;100.00;100199.00;4996414;28;20740;-67
2023/04/21 02:24:38;;;;;;;35.73;19.27;;;;;;;4.26;100.00;100206.69;4999801;28;20197;-68
2023/04/21 02:27:04;;;;;;;31.90;18.70;;;;;;;4.25;100.00;100200.56;5001960;28;20243;-68
2023/04/21 02:29:31;;;;;;;37.53;19.90;;;;;;;4.11;100.00;100203.53;4998868;28;20207;-68
2023/04/21 02:31:57;;;;;;;34.17;18.43;;;;;;;4.08;100.00;100191.22;5001048;28;20202;-68
2023/04/21 02:34:30;;;;;;;33.67;18.37;;;;;;;4.08;100.00;100201.72;4998764;28;20297;-68
2023/04/21 02:36:58;;;;;;;34.90;18.63;;;;;;;4.08;100.00;100196.47;4999560;28;20223;-68
2023/04/21 02:39:25;;;;;;;37.00;20.80;;;;;;;4.12;100.00;100203.59;5001100;28;20294;-69
2023/04/21 02:41:51;;;;;;;36.00;19.80;;;;;;;4.12;100.00;100202.72;5000945;28;20243;-69
2023/04/21 02:44:17;;;;;;;36.80;19.43;;;;;;;4.14;100.00;100211.50;4997758;28;20208;-68
2023/04/21 02:46:44;;;;;;;35.73;20.17;;;;;;;4.12;100.00;100213.19;4998323;28;20633;-68
2023/04/21 02:49:10;;;;;;;35.50;19.13;;;;;;;4.21;100.00;100214.41;4996317;28;20213;-67
2023/04/21 02:51:37;;;;;;;34.87;19.27;;;;;;;4.30;100.00;100203.34;5000658;28;20205;-68
2023/04/21 02:54:04;;;;;;;38.50;21.03;;;;;;;4.29;100.00;100206.81;5015202;28;20243;-68
2023/04/21 02:56:31;;;;;;;35.53;19.60;;;;;;;4.17;100.00;100214.25;4997219;28;20697;-68
2023/04/21 02:58:57;;;;;;;28.53;17.53;;;;;;;4.00;100.00;100206.69;4985042;28;20291;-68
2023/04/21 03:01:24;;;;;;;37.67;19.97;;;;;;;4.04;100.00;100203.31;4995582;28;20224;-68
2023/04/21 03:03:50;;;;;;;32.57;18.13;;;;;;;4.07;100.00;100205.16;4998732;28;20242;-68
2023/04/21 03:06:17;;;;;;;36.60;19.07;;;;;;;4.03;100.00;100208.50;4980370;28;20620;-68
2023/04/21 03:08:43;;;;;;;36.87;20.23;;;;;;;3.95;100.00;100205.59;4999361;28;20700;-68
2023/04/21 03:11:10;;;;;;;36.37;19.63;;;;;;;3.98;100.00;100205.69;5000080;28;20217;-68
2023/04/21 03:13:36;;;;;;;33.90;18.30;;;;;;;3.93;100.00;100209.88;4999480;28;20226;-68
2023/04/21 03:16:03;;;;;;;36.43;20.10;;;;;;;3.95;100.00;100215.19;4998360;28;20219;-68
2023/04/21 03:18:29;;;;;;;33.13;19.00;;;;;;;3.90;100.00;100208.88;4999419;28;20239;-67
2023/04/21 03:20:59;;;;;;;30.77;18.23;;;;;;;3.78;100.00;100222.41;5000668;28;20200;-68
2023/04/21 03:23:25;;;;;;;30.87;16.57;;;;;;;3.64;100.00;100218.41;4998304;28;20311;-68
2023/04/21 03:25:52;;;;;;;29.67;17.00;;;;;;;3.53;100.00;100217.97;5000410;28;20232;-68
2023/04/21 03:28:18;;;;;;;33.37;19.17;;;;;;;3.47;100.00;100228.19;4999727;28;20218;-68
2023/04/21 03:30:44;;;;;;;36.47;18.07;;;;;;;3.44;100.00;100223.75;4987656;28;20242;-68
2023/04/21 03:33:11;;;;;;;29.73;17.40;;;;;;;3.47;100.00;100220.34;5001278;28;20234;-68
2023/04/21 03:35:37;;;;;;;35.30;19.07;;;;;;;3.56;100.00;100219.81;5004830;28;20282;-68
2023/04/21 03:38:04;;;;;;;33.30;18.20;;;;;;;3.55;100.00;100226.75;5003550;28;20301;-68
2023/04/21 03:40:30;;;;;;;34.67;19.43;;;;;;;3.61;100.00;100223.53;4986963;28;20215;-68
2023/04/21 03:42:56;;;;;;;36.80;18.93;;;;;;;3.90;100.00;100217.63;5003789;28;20198;-68
2023/04/21 03:45:23;;;;;;;34.97;19.73;;;;;;;3.97;100.00;100222.25;5002383;28;20256;-68
2023/04/21 03:47:54;;;;;;;36.20;18.83;;;;;;;3.89;100.00;100220.19;5002548;28;20678;-68
2023/04/21 03:50:21;;;;;;;36.43;19.60;;;;;;;3.76;100.00;100226.72;4984022;28;20286;-68
2023/04/21 03:52:48;;;;;;;35.63;19.60;;;;;;;3.71;100.00;100213.44;5003244;28;20518;-67
2023/04/21 03:55:14;;;;;;;37.77;19.83;;;;;;;3.64;100.00;100221.00;5003126;28;20264;-68
2023/04/21 03:57:41;;;;;;;37.33;19.37;;;;;;;3.62;100.00;100214.84;5002303;28;20218;-68
2023/04/21 04:00:09;;;;;;;38.40;20.30;;;;;;;3.74;100.00;100210.94;5001505;28;20250;-67
2023/04/21 04:02:36;;;;;;;36.93;19.97;;;;;;;3.77;100.00;100205.81;4984817;28;20211;-68
2023/04/21 04:05:04;;;;;;;37.87;20.70;;;;;;;3.75;100.00;100214.44;5007006;28;20222;-68
2023/04/21 04:07:34;;;;;;;36.00;19.07;;;;;;;3.68;100.00;100208.09;5012171;28;20277;-68
2023/04/21 04:10:00;;;;;;;35.83;17.93;;;;;;;3.61;100.00;100200.84;4997332;28;20829;-68
2023/04/21 04:12:27;;;;;;;39.40;20.60;;;;;;;3.59;100.00;100199.88;5011403;28;20207;-68
2023/04/21 04:14:53;;;;;;;36.60;19.53;;;;;;;3.59;100.00;100198.97;5010054;28;20194;-68
2023/04/21 04:17:19;;;;;;;36.47;19.10;;;;;;;3.56;100.00;100205.00;5034098;22;20232;-70
2023/04/21 04:19:46;;;;;;;35.73;19.07;;;;;;;3.49;100.00;100209.94;5009561;28;20226;-71
2023/04/21 04:22:12;;;;;;;39.03;20.57;;;;;;;3.34;100.00;100203.28;5016834;28;20249;-70
2023/04/21 04:24:38;;;;;;;36.50;19.10;;;;;;;3.44;100.00;100209.75;5018571;28;20256;-70
2023/04/21 04:27:05;;;;;;;35.50;18.40;;;;;;;3.52;100.00;100205.72;5019459;28;20672;-70
2023/04/21 04:29:32;;;;;;;34.93;18.57;;;;;;;3.42;100.00;100198.34;4993031;28;20250;-71
2023/04/21 04:32:00;;;;;;;35.77;18.77;;;;;;;3.32;100.00;100199.72;5006935;28;20211;-71
2023/04/21 04:34:26;;;;;;;32.40;17.80;;;;;;;3.21;100.00;100194.91;4993096;28;20226;-71
2023/04/21 04:36:53;;;;;;;32.87;16.90;;;;;;;3.23;100.00;100203.72;5017695;28;20207;-71
2023/04/21 04:39:21;;;;;;;31.97;17.70;;;;;;;3.24;100.00;100198.53;5018093;28;20288;-70
2023/04/21 04:41:47;;;;;;;35.43;19.60;;;;;;;3.21;100.00;100197.53;5014007;28;20726;-71
2023/04/21 04:44:16;;;;;;;29.47;16.03;;;;;;;3.24;100.00;100197.63;5010783;28;20195;-70
2023/04/21 04:46:44;;;;;;;33.43;17.87;;;;;;;3.17;100.00;100199.09;5014794;28;20209;-71
2023/04/21 04:49:10;;;;;;;31.47;16.07;;;;;;;3.07;100.00;100192.59;4999533;28;20698;-71
2023/04/21 04:51:37;;;;;;;33.53;17.87;;;;;;;3.10;100.00;100197.06;5018727;28;20242;-70
2023/04/21 04:54:03;;;;;;;32.83;16.60;;;;;;;3.05;100.00;100201.22;5015492;28;20330;-70
2023/04/21 04:56:29;;;;;;;29.03;16.67;;;;;;;3.06;100.00;100203.91;4992960;28;20626;-70
2023/04/21 04:58:56;;;;;;;30.30;15.67;;;;;;;3.05;100.00;100204.75;5012959;28;20267;-70
2023/04/21 05:01:28;;;;;;;30.97;16.33;;;;;;;3.05;100.00;100199.50;5013912;28;20197;-71
2023/04/21 05:03:55;;;;;;;31.77;16.60;;;;;;;3.10;100.00;100208.44;5014800;28;20200;-71
2023/04/21 05:06:22;;;;;;;30.27;17.73;;;;;;;3.24;100.00;100209.00;5016718;28;20220;-71
2023/04/21 05:08:49;;;;;;;33.37;16.47;;;;;;;3.25;100.00;100217.75;5008648;28;20251;-71
2023/04/21 05:11:15;;;;;;;36.03;17.17;;;;;;;3.22;100.00;100215.91;5005508;28;20274;-72
2023/04/21 05:13:41;;;;;;;34.70;18.27;;;;;;;3.40;100.00;100211.38;4997844;28;20220;-71
2023/04/21 05:16:09;;;;;;;37.13;18.63;;;;;;;3.56;100.00;100214.56;5011005;28;20247;-71
2023/04/21 05:18:36;;;;;;;34.37;17.83;;;;;;;3.55;100.00;100216.28;5018912;28;20231;-72
2023/04/21 05:21:03;;;;;;;33.00;17.50;;;;;;;3.56;100.00;100212.84;5021548;28;20609;-71
2023/04/21 05:23:29;;;;;;;31.70;17.07;;;;;;;3.72;100.00;100220.47;5009330;28;20204;-73
2023/04/21 05:25:56;;;;;;;35.97;18.23;;;;;;;3.85;100.00;100218.28;5008234;28;20291;-71
2023/04/21 05:28:22;;;;;;;37.27;19.03;;;;;;;3.83;100.00;100207.75;5012879;28;20267;-70
2023/04/21 05:30:48;;;;;;;35.97;17.93;;;;;;;3.87;100.00;100209.66;5010653;28;20203;-70
2023/04/21 05:33:18;;;;;;;38.90;18.90;;;;;;;3.88;100.00;100205.31;5001938;28;20230;-70
2023/04/21 05:35:44;;;;;;;40.17;19.80;;;;;;;3.91;100.00;100206.31;5020098;28;20288;-71
2023/04/21 05:38:11;;;;;;;35.07;19.27;;;;;;;3.86;100.00;100205.25;5008317;28;20719;-73
2023/04/21 05:40:37;;;;;;;34.73;17.17;;;;;;;3.94;100.00;100213.38;5008139;28;20613;-68
2023/04/21 05:43:03;;;;;;;35.33;19.23;;;;;;;3.96;100.00;100214.34;5002988;28;20224;-71
2023/04/21 05:45:30;;;;;;;36.73;18.83;;;;;;;4.09;100.00;100216.59;5005832;28;20583;-73
2023/04/21 05:47:56;;;;;;;37.03;18.30;;;;;;;4.24;100.00;100221.47;5007899;28;20294;-70
2023/04/21 05:50:25;;;;;;;35.77;18.27;;;;;;;4.33;100.00;100219.19;5002929;28;20199;-69
2023/04/21 05:52:51;;;;;;;37.80;20.10;;;;;;;4.44;100.00;100206.47;5009118;28;20204;-71
2023/04/21 05:55:17;;;;;;;37.67;20.23;;;;;;;4.54;100.00;100208.56;4988697;28;20355;-69
2023/04/21 05:57:44;;;;;;;43.30;21.77;;;;;;;4.65;100.00;100212.44;4999887;28;20228;-71
2023/04/21 06:00:11;;;;;;;43.37;21.17;;;;;;;4.81;100.00;100203.38;5021340;28;20207;-71
2023/04/21 06:02:37;;;;;;;44.23;22.73;;;;;;;5.04;100.00;100208.50;5028346;28;20202;-71
2023/04/21 06:05:04;;;;;;;35.90;20.00;;;;;;;5.15;100.00;100210.59;5012364;28;20214;-71
2023/04/21 06:07:31;;;;;;;39.03;21.50;;;;;;;5.33;100.00;100216.44;5001060;28;20199;-71
2023/04/21 06:09:57;;;;;;;44.63;22.87;;;;;;;5.39;100.00;100200.88;4992903;28;20196;-69
2023/04/21 06:12:23;;;;;;;47.40;23.10;;;;;;;5.42;100.00;100219.34;4999032;28;20243;-71
2023/04/21 06:14:50;;;;;;;41.80;22.03;;;;;;;5.49;100.00;100212.53;4996912;28;20230;-71
2023/04/21 06:17:17;;;;;;;45.07;23.00;;;;;;;5.69;100.00;100206.16;4985090;28;20204;-69
2023/04/21 06:19:43;;;;;;;48.63;23.37;;;;;;;5.86;100.00;100201.41;4989201;28;20288;-73
2023/04/21 06:22:10;;;;;;;41.80;22.80;;;;;;;5.84;100.00;100198.72;4996667;28;20203;-72
2023/04/21 06:24:36;;;;;;;43.77;23.70;;;;;;;5.90;100.00;100214.69;4999790;28;20196;-71
2023/04/21 06:27:03;;;;;;;39.77;22.37;;;;;;;5.89;100.00;100217.25;5000777;28;20204;-71
2023/04/21 06:29:29;;;;;;;43.40;22.03;;;;;;;6.11;100.00;100209.19;5000959;28;20239;-70
2023/04/21 06:31:55;;;;;;;41.57;22.03;;;;;;;6.40;100.00;100207.34;5000601;28;20629;-71
2023/04/21 06:34:22;;;;;;;45.00;23.13;;;;;;;6.59;100.00;100214.88;5009519;28;20684;-72
2023/04/21 06:36:48;;;;;;;44.27;23.73;;;;;;;6.93;100.00;100217.50;5008498;28;20200;-73
2023/04/21 06:39:14;;;;;;;44.20;23.00;;;;;;;7.01;100.00;100208.03;5009242;28;20700;-71
2023/04/21 06:41:41;;;;;;;44.40;23.37;;;;;;;6.99;100.00;100222.91;5008623;28;20635;-71
2023/04/21 06:44:07;;;;;;;40.27;22.70;;;;;;;7.09;100.00;100217.91;5005992;28;20217;-70
2023/04/21 06:46:33;;;;;;;40.87;23.47;;;;;;;7.06;100.00;100222.22;4991949;28;20255;-71
2023/04/21 06:49:00;;;;;;;38.67;21.97;;;;;;;6.91;100.00;100228.00;5007063;28;20701;-71
2023/04/21 06:51:26;;;;;;;41.03;21.47;;;;;;;6.74;100.00;100226.66;5005059;28;20224;-71
2023/04/21 06:53:52;;;;;;;35.10;19.33;;;;;;;6.90;100.00;100227.09;5007100;28;20770;-71
2023/04/21 06:56:20;;;;;;;51.43;20.07;;;;;;;6.87;100.00;100234.94;5007274;28;20580;-70
2023/04/21 06:58:46;;;;;;;34.90;19.60;;;;;;;7.13;100.00;100238.19;5004976;28;20230;-71
2023/04/21 07:01:12;;;;;;;49.13;21.23;;;;;;;7.08;100.00;100228.41;5009303;28;20221;-72
2023/04/21 07:03:39;;;;;;;54.27;21.17;;;;;;;6.95;100.00;100224.59;5001696;28;20226;-71
2023/04/21 07:06:06;;;;;;;31.13;18.63;;;;;;;7.01;100.00;100227.38;5008226;28;20501;-71
2023/04/21 07:08:33;;;;;;;40.70;19.57;;;;;;;6.98;100.00;100222.03;4990909;28;20222;-71
2023/04/21 07:10:59;;;;;;;40.33;19.37;;;;;;;7.09;100.00;100232.81;5007777;28;20202;-70
2023/04/21 07:13:26;;;;;;;38.53;19.73;;;;;;;7.33;100.00;100233.44;4991565;28;20225;-71
2023/04/21 07:15:52;;;;;;;44.23;20.00;;;;;;;7.34;100.00;100222.03;5008175;28;20723;-72
2023/04/21 07:18:19;;;;;;;42.10;20.50;;;;;;;7.25;100.00;100228.84;5007448;28;20892;-72
2023/04/21 07:20:45;;;;;;;35.67;19.10;;;;;;;7.32;100.00;100233.38;4990822;28;20230;-72
2023/04/21 07:23:12;;;;;;;34.53;19.30;;;;;;;7.68;100.00;100231.59;5008542;28;20701;-71
2023/04/21 07:25:38;;;;;;;34.07;18.77;;;;;;;7.88;100.00;100231.13;5009327;28;20199;-71
2023/04/21 07:28:05;;;;;;;32.50;18.93;;;;;;;7.96;100.00;100217.25;5005521;28;21741;-71
2023/04/21 07:30:31;;;;;;;33.27;19.83;;;;;;;8.24;100.00;100212.56;5009238;28;20208;-73
2023/04/21 07:32:58;;;;;;;30.13;17.93;;;;;;;9.09;100.00;100209.75;5007230;28;20203;-72
2023/04/21 07:35:24;;;;;;;31.67;18.63;;;;;;;9.34;100.00;100221.59;5009942;28;20779;-72
2023/04/21 07:37:51;;;;;;;30.07;18.43;;;;;;;9.45;100.00;100218.22;5000391;28;20220;-72
2023/04/21 07:40:17;;;;;;;32.17;18.93;;;;;;;9.75;100.00;100229.25;5008730;28;20253;-71
2023/04/21 07:42:43;;;;;;;29.10;18.30;;;;;;;9.87;100.00;100228.53;5008536;28;20284;-71
2023/04/21 07:45:10;;;;;;;33.10;19.70;;;;;;;9.77;100.00;100224.00;5005188;28;20262;-71
2023/04/21 07:47:36;;;;;;;27.23;16.73;;;;;;;9.74;100.00;100222.19;5008818;28;20282;-71
2023/04/21 07:50:03;;;;;;;29.67;18.20;;;;;;;9.65;100.00;100220.31;5007628;28;20200;-69
2023/04/21 07:52:30;;;;;;;28.30;18.43;;;;;;;9.75;100.00;100226.63;5000030;28;20231;-72
2023/04/21 07:54:56;;;;;;;28.73;18.57;;;;;;;10.02;100.00;100224.34;4996939;28;20216;-71
2023/04/21 07:57:23;;;;;;;28.17;17.87;;;;;;;10.19;100.00;100231.59;4997404;28;20712;-71
2023/04/21 07:59:49;;;;;;;31.43;18.20;;;;;;;9.95;100.00;100234.81;4997062;28;20582;-71
2023/04/21 08:02:16;;;;;;;29.30;17.90;;;;;;;9.79;100.00;100236.38;4999080;28;20247;-71
2023/04/21 08:04:42;;;;;;;30.73;18.53;;;;;;;9.90;100.00;100224.16;4995119;28;20207;-70
2023/04/21 08:07:09;;;;;;;28.53;18.00;;;;;;;9.79;100.00;100232.84;5004526;28;20588;-71
2023/04/21 08:09:35;;;;;;;27.03;18.07;;;;;;;10.11;100.00;100228.88;5005941;28;20212;-71
2023/04/21 08:12:02;;;;;;;30.70;19.00;;;;;;;10.07;100.00;100207.66;4985616;28;20666;-72
2023/04/21 08:14:28;;;;;;;30.20;18.80;;;;;;;10.14;100.00;100197.16;5004544;28;20248;-71
2023/04/21 08:16:54;;;;;;;32.37;19.83;;;;;;;10.12;100.00;100198.88;5009816;28;20712;-72
2023/04/21 08:19:22;;;;;;;30.03;19.43;;;;;;;10.33;100.00;100208.84;5009358;28;20286;-72
2023/04/21 08:21:49;;;;;;;33.83;20.63;;;;;;;10.51;100.00;100214.38;5009874;28;20209;-74
2023/04/21 08:24:15;;;;;;;30.63;19.73;;;;;;;10.80;100.00;100206.69;5010751;28;20569;-73
2023/04/21 08:26:42;;;;;;;32.83;20.17;;;;;;;10.98;100.00;100221.91;5012201;28;20212;-73
2023/04/21 08:29:09;;;;;;;33.03;19.97;;;;;;;11.20;98.86;100225.59;5007445;28;20310;-73
2023/04/21 08:31:35;;;;;;;29.97;19.50;;;;;;;11.25;98.97;100213.31;5003601;28;20199;-72
2023/04/21 08:34:02;;;;;;;36.10;20.90;;;;;;;11.42;97.08;100206.34;5001129;28;20219;-79
2023/04/21 08:36:29;;;;;;;29.00;18.30;;;;;;;11.73;97.59;100219.81;5008601;28;20255;-79
2023/04/21 08:38:56;;;;;;;31.37;19.90;;;;;;;11.73;94.26;100220.69;4988238;28;20327;-79
2023/04/21 08:41:23;;;;;;;28.73;19.90;;;;;;;11.70;94.37;100211.84;5006802;28;20216;-75
2023/04/21 08:43:50;;;;;;;31.93;20.13;;;;;;;12.04;92.30;100205.88;5011069;28;20227;-75
2023/04/21 08:46:17;;;;;;;30.53;19.53;;;;;;;12.60;91.21;100202.50;5010435;28;20203;-74
2023/04/21 08:48:45;;;;;;;30.67;20.23;;;;;;;12.73;89.57;100214.03;5007104;28;20229;-74
2023/04/21 08:51:16;;;;;;;33.77;20.73;;;;;;;13.06;89.45;100214.06;5008710;28;20206;-75
2023/04/21 08:53:43;;;;;;;31.40;21.27;;;;;;;13.03;88.10;100213.19;5004326;28;20229;-73
2023/04/21 08:56:09;;;;;;;30.20;20.37;;;;;;;13.39;89.12;100204.34;5008928;28;20197;-73
2023/04/21 08:58:37;;;;;;;36.50;21.33;;;;;;;13.55;86.52;100205.19;5007691;28;20223;-74
2023/04/21 09:01:03;;;;;;;33.67;20.00;;;;;;;13.63;85.88;100204.31;5011656;28;20212;-73
2023/04/21 09:03:30;;;;;;;31.73;20.47;;;;;;;13.65;86.21;100194.56;5004639;28;20292;-71
2023/04/21 09:06:04;;;;;;;31.23;20.63;;;;;;;13.76;85.74;100197.19;5010136;28;20234;-72
2023/04/21 09:08:32;;;;;;;32.93;20.60;;;;;;;13.79;85.21;100199.84;5008684;28;20219;-73
2023/04/21 09:11:00;;;;;;;32.47;20.73;;;;;;;13.53;87.53;100191.03;5008348;28;20196;-72
2023/04/21 09:13:32;;;;;;;32.10;21.57;;;;;;;13.78;85.78;100190.97;5008151;28;20216;-73
2023/04/21 09:16:00;;;;;;;34.83;20.47;;;;;;;13.92;83.77;100185.59;5004935;28;20216;-73
2023/04/21 09:18:35;;;;;;;34.17;21.67;;;;;;;14.03;85.10;100182.91;5007748;28;20491;-73
2023/04/21 09:21:10;;;;;;;31.73;21.07;;;;;;;14.60;83.91;100170.19;4991933;28;20200;-74
2023/04/21 09:23:48;;;;;;;32.63;20.23;;;;;;;14.66;81.00;100175.50;5005433;28;20211;-72
2023/04/21 09:26:17;;;;;;;33.53;21.20;;;;;;;14.32;81.01;100180.97;5007797;28;20204;-71
2023/04/21 09:28:45;;;;;;;30.43;20.43;;;;;;;14.63;80.57;100178.19;5006538;28;20220;-73
2023/04/21 09:31:15;;;;;;;33.23;21.03;;;;;;;14.99;80.34;100169.91;5004582;28;20208;-75
2023/04/21 09:33:46;;;;;;;31.13;19.33;;;;;;;15.56;80.03;100166.72;5007401;28;20555;-77
2023/04/21 09:36:25;;;;;;;27.90;18.37;;;;;;;15.60;77.46;100165.81;5007740;28;20222;-70
2023/04/21 09:39:10;;;;;;;34.07;18.60;;;;;;;15.51;76.28;100166.75;5006909;28;20223;-70
2023/04/21 09:41:39;;;;;;;25.93;16.87;;;;;;;15.30;76.67;100161.66;5004398;28;20226;-73
2023/04/21 09:44:06;;;;;;;26.43;17.80;;;;;;;15.25;77.88;100158.16;5012796;28;20195;-71
2023/04/21 09:46:34;;;;;;;26.87;17.93;;;;;;;15.21;77.79;100161.72;5006255;28;20838;-76
2023/04/21 09:49:01;;;;;;;27.87;17.43;;;;;;;15.29;77.79;100155.44;5001828;28;20277;-73
2023/04/21 09:51:30;;;;;;;26.70;17.50;;;;;;;15.41;76.08;100156.19;5008343;28;20235;-75
2023/04/21 09:54:18;;;;;;;26.87;16.97;;;;;;;15.91;73.83;100153.00;4995159;28;20223;-73
2023/04/21 09:57:00;;;;;;;27.47;18.13;;;;;;;16.18;73.45;100147.31;5009411;28;20692;-73
2023/04/21 09:59:45;;;;;;;27.93;17.77;;;;;;;15.93;73.98;100154.75;5005432;28;20220;-72
2023/04/21 10:02:12;;;;;;;25.77;17.00;;;;;;;15.68;74.18;100147.06;5005680;28;20256;-73
2023/04/21 10:04:41;;;;;;;26.77;17.97;;;;;;;15.87;74.65;100149.47;5007936;28;20630;-74
2023/04/21 10:07:09;;;;;;;25.83;16.77;;;;;;;16.34;75.00;100141.75;4999894;28;20196;-72
2023/04/21 10:09:41;;;;;;;26.37;16.60;;;;;;;16.61;71.64;100144.03;5003399;28;20255;-72
2023/04/21 10:12:09;;;;;;;23.40;15.23;;;;;;;16.99;69.56;100145.25;5006858;28;20196;-72
2023/04/21 10:14:35;;;;;;;26.17;16.87;;;;;;;17.12;69.83;100146.81;5007443;28;20216;-73
2023/04/21 10:17:06;;;;;;;25.27;16.60;;;;;;;17.10;68.67;100141.47;5006999;28;20227;-72
2023/04/21 10:19:38;;;;;;;25.73;16.97;;;;;;;17.06;70.59;100138.88;5018072;23;20231;-69
2023/04/21 10:22:09;;;;;;;28.43;17.27;;;;;;;17.25;67.85;100137.69;4997501;28;20193;-71
2023/04/21 10:24:38;;;;;;;26.67;16.13;;;;;;;17.22;67.21;100138.63;5005681;28;20235;-69
2023/04/21 10:27:04;;;;;;;24.67;16.30;;;;;;;17.23;68.55;100150.19;5013277;28;20648;-72
2023/04/21 10:29:33;;;;;;;22.47;15.50;;;;;;;17.13;66.77;100145.91;5006261;28;20314;-71
2023/04/21 10:32:40;;;;;;;22.00;14.27;;;;;;;17.13;67.24;100136.06;5003065;28;20259;-72
2023/04/21 10:35:21;;;;;;;25.60;15.93;;;;;;;17.21;67.95;100149.31;5000460;28;20212;-70
2023/04/21 10:37:51;;;;;;;23.90;15.37;;;;;;;17.00;67.58;100139.00;4988330;28;20593;-71
2023/04/21 10:40:30;;;;;;;26.43;16.67;;;;;;;16.53;69.02;100146.84;5003541;28;20200;-71
2023/04/21 10:43:42;;;;;;;23.57;14.57;;;;;;;16.71;69.53;100144.81;5004697;28;20232;-72
2023/04/21 10:46:34;;;;;;;28.40;17.13;;;;;;;16.54;70.01;100135.22;5002829;28;20197;-70
2023/04/21 10:49:09;;;;;;;27.30;16.83;;;;;;;15.81;72.83;100132.66;5003436;28;20220;-72
2023/04/21 10:52:04;;;;;;;26.93;16.80;;;;;;;15.85;73.64;100131.72;5003673;28;20262;-70
2023/04/21 10:54:45;;;;;;;25.63;16.50;;;;;;;15.61;73.69;100128.44;5000355;28;20220;-72
2023/04/21 10:57:18;;;;;;;25.97;16.47;;;;;;;15.80;72.90;100126.44;5001889;28;20258;-71
2023/04/21 10:59:46;;;;;;;24.90;16.53;;;;;;;15.80;72.46;100120.22;5002729;28;20299;-71
2023/04/21 11:02:14;;;;;;;25.77;16.90;;;;;;;15.66;73.62;100120.38;5002001;28;20208;-70
2023/04/21 11:04:46;;;;;;;27.93;17.00;;;;;;;16.21;72.63;100114.34;4999056;28;20196;-70
2023/04/21 11:07:16;;;;;;;25.83;16.70;;;;;;;16.07;72.64;100106.50;5002680;28;20232;-72
2023/04/21 11:09:44;;;;;;;23.67;15.40;;;;;;;16.06;71.65;100112.75;4998379;28;20222;-74
2023/04/21 11:12:13;;;;;;;24.27;15.40;;;;;;;16.10;nan;100095.78;5001767;28;20211;-71
2023/04/21 11:14:41;;;;;;;26.93;17.13;;;;;;;15.86;72.52;100106.78;5003274;28;20262;-70